Aérodrome :
LOGIN :

S'inscrire | Disclaimer

   EN    FR    IT 

 










Légende :    VFR   VFR Marginal   IFR   IFR Intensif   IFR Très Intensif
Visi : 
Plafond : 
>= 8 km
>= 3000ft
5 à 8 km
1000 à 3000 ft
1500m à 5 km
500 à 1000 ft
800 à 1500m
200 à 500 ft
< 800m
< 200 ft
Symboles :   Orages  Brouillard  Fortes neiges  Fortes précipitations  Vent > 20 kt
SIGMETs :   Divers  Orages  Givrage  Turbulence  Onde Orograph.  Cendres Volcan.






- Altitude de l'aérodrome : 459 ft
- Code IATA : CER


LFRC - Cherbourg / Maupertus

DERNIER METAR :
  • 140100Z AUTO 19008KT 9999 -RA BKN030/// BKN038/// BKN049/// ///TCU 04/03 Q0989

METARs EXPIRÉS :
  • 140030Z AUTO 21010KT 9999 +DZ FEW028/// SCT050/// BKN060/// ///TCU 04/03 Q0989
  • 140000Z AUTO 22006KT 190V250 9000 -RA BKN027/// BKN035/// BKN041/// ///TCU 04/03 Q0989
  • 132330Z AUTO 21014KT 9999 -RA FEW008/// BKN029/// BKN036/// ///TCU 04/03 Q0989
  • 132300Z AUTO 21013KT 9000 +RADZ FEW013/// BKN027/// BKN032/// ///TCU 04/03 Q0990
  • 132230Z AUTO 19008KT 9999 -RA SCT029/// BKN036/// BKN043/// ///TCU 04/03 Q0989

Prévision TAF périmée.



MET'MAP, la Météo Aéronautique d'un coup d'oeil ! - Copyright ORBIFLY Décembre 2007 - Disclaimer

ORBIFLY MET'MAP TEAM :

Programmation & Développement : Alexandra Zaïnal
Conception & Développement : Baudouin d'Aumeries
Co-Programmation & Développement : Marc-Olivier Méhu
Soutien technique & logistique : Manuel Goepfert

Contact : metmap@orbifly.com




SOURCES & CREDITS :

   NOAA